createdAt,value
2023-04-08T00:01:12.264Z,37.03
2023-04-08T00:03:40.888Z,37.67
2023-04-08T00:06:10.550Z,41.50
2023-04-08T00:08:38.494Z,38.33
2023-04-08T00:11:07.168Z,39.83
2023-04-08T00:13:35.309Z,41.90
2023-04-08T00:16:03.334Z,46.60
2023-04-08T00:18:31.476Z,40.97
2023-04-08T00:20:59.422Z,44.43
2023-04-08T00:23:28.818Z,42.37
2023-04-08T00:25:56.844Z,42.40
2023-04-08T00:28:24.831Z,40.40
2023-04-08T00:30:54.183Z,46.40
2023-04-08T00:33:22.232Z,43.20
2023-04-08T00:35:51.068Z,40.83
2023-04-08T00:38:19.071Z,41.60
2023-04-08T00:40:48.482Z,43.90
2023-04-08T00:43:16.994Z,42.13
2023-04-08T00:45:45.008Z,47.07
2023-04-08T00:48:13.052Z,40.70
2023-04-08T00:50:41.174Z,41.13
2023-04-08T00:53:09.191Z,40.67
2023-04-08T00:55:37.226Z,37.40
2023-04-08T00:58:06.596Z,36.67
2023-04-08T01:00:36.191Z,36.50
2023-04-08T01:03:12.438Z,34.30
2023-04-08T01:05:49.808Z,28.73
2023-04-08T01:08:19.768Z,26.77
2023-04-08T01:10:52.309Z,28.67
2023-04-08T01:13:24.803Z,28.10
2023-04-08T01:15:55.065Z,29.23
2023-04-08T01:18:25.065Z,24.23
2023-04-08T01:20:55.170Z,24.97
2023-04-08T01:23:31.018Z,25.00
2023-04-08T01:26:00.498Z,24.57
2023-04-08T01:28:31.721Z,28.57
2023-04-08T01:31:02.097Z,26.23
2023-04-08T01:33:32.627Z,27.17
2023-04-08T01:36:02.014Z,27.83
2023-04-08T01:38:35.530Z,32.83
2023-04-08T01:41:05.693Z,33.60
2023-04-08T01:43:35.321Z,31.73
2023-04-08T01:46:03.551Z,30.63
2023-04-08T01:48:32.370Z,33.80
2023-04-08T01:51:02.080Z,32.87
2023-04-08T01:53:30.089Z,33.07
2023-04-08T01:56:04.309Z,38.37
2023-04-08T01:58:39.237Z,34.43
2023-04-08T02:01:11.400Z,33.63
2023-04-08T02:03:40.021Z,32.07
2023-04-08T02:06:08.098Z,29.33
2023-04-08T02:08:36.536Z,33.47
2023-04-08T02:11:05.095Z,33.07
2023-04-08T02:13:34.758Z,31.90
2023-04-08T02:16:07.913Z,32.33
2023-04-08T02:18:38.309Z,34.03
2023-04-08T02:21:12.126Z,36.37
2023-04-08T02:23:42.570Z,34.00
2023-04-08T02:26:16.670Z,33.40
2023-04-08T02:28:46.880Z,32.77
2023-04-08T02:31:15.777Z,35.87
2023-04-08T02:33:44.452Z,33.40
2023-04-08T02:36:13.427Z,32.03
2023-04-08T02:38:41.404Z,35.87
2023-04-08T02:41:09.417Z,37.10
2023-04-08T02:43:37.440Z,36.23
2023-04-08T02:46:07.395Z,37.10
2023-04-08T02:48:35.483Z,37.77
2023-04-08T02:51:03.645Z,37.67
2023-04-08T02:53:31.705Z,37.27
2023-04-08T02:55:59.728Z,35.53
2023-04-08T02:58:27.769Z,34.53
2023-04-08T03:00:55.809Z,37.73
2023-04-08T03:03:29.349Z,36.67
2023-04-08T03:05:58.400Z,37.37
2023-04-08T03:08:26.527Z,35.13
2023-04-08T03:10:54.519Z,35.27
2023-04-08T03:13:22.525Z,35.47
2023-04-08T03:15:50.587Z,33.80
2023-04-08T03:18:18.843Z,34.23
2023-04-08T03:20:48.176Z,35.40
2023-04-08T03:23:16.452Z,31.80
2023-04-08T03:25:44.436Z,36.93
2023-04-08T03:28:12.432Z,41.03
2023-04-08T03:30:40.604Z,38.53
2023-04-08T03:33:08.890Z,41.93
2023-04-08T03:35:37.493Z,44.47
2023-04-08T03:38:07.011Z,44.87
2023-04-08T03:40:35.027Z,41.23
2023-04-08T03:43:03.035Z,42.23
2023-04-08T03:45:31.011Z,43.03
2023-04-08T03:47:59.053Z,38.03
2023-04-08T03:50:27.081Z,36.13
2023-04-08T03:52:55.043Z,33.67
2023-04-08T03:55:24.488Z,35.30
2023-04-08T03:57:52.462Z,34.13
2023-04-08T04:00:20.454Z,35.93
2023-04-08T04:02:48.483Z,37.10
2023-04-08T04:05:16.575Z,36.27
2023-04-08T04:07:44.544Z,39.03
2023-04-08T04:10:12.704Z,37.50
2023-04-08T04:12:42.081Z,36.27
2023-04-08T04:15:10.686Z,36.63
2023-04-08T04:17:38.688Z,36.50
2023-04-08T04:20:07.647Z,37.93
2023-04-08T04:22:35.630Z,36.80
2023-04-08T04:25:03.569Z,34.87
2023-04-08T04:27:31.540Z,35.73
2023-04-08T04:30:02.114Z,36.60
2023-04-08T04:32:30.367Z,37.83
2023-04-08T04:34:58.334Z,37.53
2023-04-08T04:37:26.473Z,36.77
2023-04-08T04:39:54.454Z,31.07
2023-04-08T04:42:22.438Z,33.20
2023-04-08T04:44:50.418Z,31.57
2023-04-08T04:47:19.844Z,28.87
2023-04-08T04:49:48.352Z,31.17
2023-04-08T04:52:16.324Z,30.50
2023-04-08T04:54:45.461Z,28.17
2023-04-08T04:57:13.430Z,29.73
2023-04-08T04:59:41.402Z,28.70
2023-04-08T05:02:09.453Z,33.20
2023-04-08T05:04:38.904Z,34.43
2023-04-08T05:07:06.975Z,36.53
2023-04-08T05:09:34.988Z,34.70
2023-04-08T05:12:02.992Z,34.63
2023-04-08T05:14:31.402Z,31.30
2023-04-08T05:16:59.347Z,33.13
2023-04-08T05:19:27.406Z,33.40
2023-04-08T05:21:56.810Z,32.47
2023-04-08T05:24:24.781Z,31.30
2023-04-08T05:26:53.406Z,27.47
2023-04-08T05:29:22.017Z,27.23
2023-04-08T05:31:50.107Z,28.87
2023-04-08T05:34:22.963Z,27.23
2023-04-08T05:36:52.870Z,29.77
2023-04-08T05:39:22.255Z,26.60
2023-04-08T05:41:50.513Z,28.60
2023-04-08T05:44:18.737Z,26.47
2023-04-08T05:46:46.747Z,30.53
2023-04-08T05:49:15.767Z,28.57
2023-04-08T05:51:43.787Z,27.17
2023-04-08T05:54:11.956Z,29.47
2023-04-08T05:56:41.305Z,26.80
2023-04-08T05:59:09.362Z,25.90
2023-04-08T06:01:37.478Z,28.57
2023-04-08T06:04:05.929Z,28.27
2023-04-08T06:06:34.033Z,28.50
2023-04-08T06:09:02.036Z,27.53
2023-04-08T06:11:29.967Z,29.07
2023-04-08T06:13:59.363Z,29.43
2023-04-08T06:16:27.367Z,30.73
2023-04-08T06:18:55.354Z,27.87
2023-04-08T06:21:23.374Z,29.50
2023-04-08T06:23:51.603Z,29.53
2023-04-08T06:26:19.580Z,25.20
2023-04-08T06:28:47.593Z,25.90
2023-04-08T06:31:16.963Z,27.30
2023-04-08T06:33:44.928Z,25.83
2023-04-08T06:36:13.463Z,26.80
2023-04-08T06:38:41.417Z,26.63
2023-04-08T06:41:10.031Z,29.20
2023-04-08T06:43:38.484Z,26.33
2023-04-08T06:46:07.090Z,25.67
2023-04-08T06:48:37.884Z,26.70
2023-04-08T06:51:07.768Z,24.13
2023-04-08T06:53:35.827Z,23.47
2023-04-08T06:56:03.825Z,24.40
2023-04-08T06:58:31.891Z,27.03
2023-04-08T07:01:01.275Z,25.67
2023-04-08T07:03:29.393Z,25.90
2023-04-08T07:06:00.130Z,25.87
2023-04-08T07:08:28.304Z,24.90
2023-04-08T07:10:56.623Z,22.90
2023-04-08T07:13:24.770Z,22.07
2023-04-08T07:15:53.295Z,22.33
2023-04-08T07:18:21.819Z,24.70
2023-04-08T07:20:53.952Z,23.93
2023-04-08T07:23:23.781Z,22.13
2023-04-08T07:25:51.804Z,23.60
2023-04-08T07:28:19.768Z,24.27
2023-04-08T07:30:47.895Z,22.43
2023-04-08T07:33:16.188Z,22.93
2023-04-08T07:35:44.191Z,22.67
2023-04-08T07:38:13.462Z,24.63
2023-04-08T07:40:42.809Z,24.13
2023-04-08T07:43:10.810Z,23.00
2023-04-08T07:45:38.799Z,21.90
2023-04-08T07:48:07.233Z,21.23
2023-04-08T07:51:08.502Z,20.40
2023-04-08T07:53:26.561Z,20.27
2023-04-08T07:55:55.927Z,19.13
2023-04-08T07:58:25.325Z,21.50
2023-04-08T08:00:53.920Z,22.20
2023-04-08T08:03:22.049Z,23.63
2023-04-08T08:05:50.357Z,23.33
2023-04-08T08:08:18.319Z,23.70
2023-04-08T08:10:46.281Z,23.67
2023-04-08T08:13:17.422Z,20.43
2023-04-08T08:15:45.497Z,18.37
2023-04-08T08:18:13.465Z,18.97
2023-04-08T08:20:41.455Z,17.40
2023-04-08T08:23:09.417Z,18.50
2023-04-08T08:25:37.492Z,18.37
2023-04-08T08:28:05.778Z,21.57
2023-04-08T08:30:35.110Z,18.57
2023-04-08T08:33:03.153Z,22.90
2023-04-08T08:35:31.554Z,20.57
2023-04-08T08:37:59.544Z,22.30
2023-04-08T08:40:27.496Z,19.30
2023-04-08T08:42:56.554Z,19.73
2023-04-08T08:45:24.562Z,20.20
2023-04-08T08:47:54.251Z,19.47
2023-04-08T08:50:22.340Z,17.87
2023-04-08T08:52:51.300Z,20.80
2023-04-08T08:55:41.427Z,20.47
2023-04-08T08:58:09.015Z,19.00
2023-04-08T09:00:38.686Z,19.83
2023-04-08T09:03:27.807Z,19.10
2023-04-08T09:05:57.359Z,20.17
2023-04-08T09:08:30.437Z,18.43
2023-04-08T09:11:13.281Z,16.57
2023-04-08T09:13:41.575Z,19.40
2023-04-08T09:16:10.896Z,20.93
2023-04-08T09:18:41.219Z,18.17
2023-04-08T09:21:09.237Z,17.60
2023-04-08T09:23:41.946Z,16.98
2023-04-08T09:26:11.393Z,15.52
2023-04-08T09:28:40.491Z,15.75
2023-04-08T09:31:23.925Z,17.90
2023-04-08T09:33:55.884Z,16.50
2023-04-08T09:36:24.068Z,15.18
2023-04-08T09:38:52.018Z,14.85
2023-04-08T09:41:23.487Z,14.55
2023-04-08T09:43:55.757Z,14.70
2023-04-08T09:46:28.859Z,17.63
2023-04-08T09:49:06.327Z,14.05
2023-04-08T09:51:38.153Z,13.18
2023-04-08T09:54:14.298Z,13.88
2023-04-08T09:56:48.951Z,14.65
2023-04-08T09:59:18.667Z,12.25
2023-04-08T10:01:51.362Z,11.65
2023-04-08T10:04:24.060Z,11.98
2023-04-08T10:06:55.549Z,14.15
2023-04-08T10:09:24.076Z,13.68
2023-04-08T10:11:53.689Z,13.07
2023-04-08T10:14:22.227Z,14.23
2023-04-08T10:16:50.451Z,13.77
2023-04-08T10:19:41.345Z,14.18
2023-04-08T10:22:51.715Z,16.25
2023-04-08T10:25:38.087Z,15.38
2023-04-08T10:28:27.308Z,15.02
2023-04-08T10:30:56.618Z,15.15
2023-04-08T10:33:32.914Z,17.75
2023-04-08T10:36:11.298Z,14.85
2023-04-08T10:38:39.616Z,13.25
2023-04-08T10:41:07.745Z,13.80
2023-04-08T10:43:36.651Z,14.53
2023-04-08T10:46:05.123Z,21.93
2023-04-08T10:48:33.325Z,15.47
2023-04-08T10:51:04.854Z,12.23
2023-04-08T10:53:34.682Z,11.97
2023-04-08T10:56:07.632Z,12.10
2023-04-08T10:58:36.476Z,13.17
2023-04-08T11:01:06.817Z,12.67
2023-04-08T11:03:36.094Z,16.27
2023-04-08T11:06:07.479Z,14.97
2023-04-08T11:08:36.745Z,18.17
2023-04-08T11:11:08.865Z,14.90
2023-04-08T11:13:38.250Z,14.57
2023-04-08T11:16:17.783Z,15.83
2023-04-08T11:18:47.999Z,17.07
2023-04-08T11:21:17.791Z,16.30
2023-04-08T11:23:46.489Z,17.17
2023-04-08T11:26:16.326Z,17.23
2023-04-08T11:28:44.723Z,23.87
2023-04-08T11:31:14.316Z,19.03
2023-04-08T11:33:47.496Z,18.93
2023-04-08T11:36:19.118Z,19.00
2023-04-08T11:38:47.978Z,18.50
2023-04-08T11:41:16.884Z,16.83
2023-04-08T11:43:55.414Z,17.03
2023-04-08T11:46:23.942Z,17.07
2023-04-08T11:49:02.163Z,16.47
2023-04-08T11:51:31.841Z,22.53
2023-04-08T11:53:59.866Z,19.50
2023-04-08T11:56:29.060Z,17.53
2023-04-08T11:58:57.314Z,18.67
2023-04-08T12:01:25.806Z,19.33
2023-04-08T12:03:59.322Z,18.50
2023-04-08T12:06:28.218Z,20.90
2023-04-08T12:08:58.122Z,20.17
2023-04-08T12:11:26.241Z,21.47
2023-04-08T12:13:54.368Z,19.90
2023-04-08T12:16:22.507Z,22.13
2023-04-08T12:18:50.545Z,20.73
2023-04-08T12:21:18.621Z,23.80
2023-04-08T12:23:46.801Z,20.87
2023-04-08T12:26:16.155Z,20.37
2023-04-08T12:28:44.124Z,20.23
2023-04-08T12:31:12.172Z,19.43
2023-04-08T12:33:40.371Z,19.07
2023-04-08T12:36:08.679Z,20.43
2023-04-08T12:38:37.398Z,22.47
2023-04-08T12:41:05.451Z,22.03
2023-04-08T12:43:34.799Z,18.13
2023-04-08T12:46:03.275Z,19.90
2023-04-08T12:48:31.227Z,19.13
2023-04-08T12:50:59.542Z,19.73
2023-04-08T12:53:27.698Z,18.07
2023-04-08T12:55:57.637Z,18.43
2023-04-08T12:58:26.310Z,21.53
2023-04-08T13:00:55.928Z,22.40
2023-04-08T13:03:24.197Z,25.37
2023-04-08T13:05:52.381Z,21.33
2023-04-08T13:08:20.416Z,22.97
2023-04-08T13:10:48.400Z,18.77
2023-04-08T13:13:16.657Z,22.37
2023-04-08T13:15:44.814Z,22.03
2023-04-08T13:18:14.895Z,22.87
2023-04-08T13:20:42.865Z,22.07
2023-04-08T13:23:10.886Z,22.03
2023-04-08T13:25:38.868Z,20.70
2023-04-08T13:28:06.859Z,25.97
2023-04-08T13:30:35.011Z,23.37
2023-04-08T13:33:03.118Z,26.33
2023-04-08T13:35:32.733Z,26.17
2023-04-08T13:38:00.716Z,26.63
2023-04-08T13:40:28.899Z,25.53
2023-04-08T13:42:57.319Z,24.23
2023-04-08T13:45:25.502Z,24.10
2023-04-08T13:47:53.495Z,24.77
2023-04-08T13:50:21.613Z,25.43
2023-04-08T13:52:51.143Z,28.47
2023-04-08T13:55:19.218Z,25.60
2023-04-08T13:57:47.212Z,21.97
2023-04-08T14:00:15.829Z,25.50
2023-04-08T14:02:43.981Z,21.50
2023-04-08T14:05:12.005Z,19.90
2023-04-08T14:07:40.034Z,20.70
2023-04-08T14:10:10.913Z,23.90
2023-04-08T14:12:38.884Z,23.67
2023-04-08T14:15:08.019Z,20.87
2023-04-08T14:17:36.305Z,23.33
2023-04-08T14:20:05.586Z,23.57
2023-04-08T14:22:33.567Z,24.67
2023-04-08T14:25:01.589Z,25.20
2023-04-08T14:27:30.923Z,27.93
2023-04-08T14:29:58.892Z,23.60
2023-04-08T14:32:26.995Z,27.10
2023-04-08T14:34:54.992Z,26.73
2023-04-08T14:37:22.950Z,29.97
2023-04-08T14:39:50.979Z,25.67
2023-04-08T14:42:18.904Z,25.33
2023-04-08T14:44:48.248Z,28.93
2023-04-08T14:47:16.209Z,28.57
2023-04-08T14:49:44.177Z,28.63
2023-04-08T14:52:12.158Z,27.03
2023-04-08T14:54:40.140Z,27.77
2023-04-08T14:57:08.199Z,26.17
2023-04-08T14:59:36.458Z,24.67
2023-04-08T15:02:06.080Z,26.00
2023-04-08T15:04:34.213Z,31.07
2023-04-08T15:07:02.941Z,28.80
2023-04-08T15:09:30.978Z,31.50
2023-04-08T15:11:58.959Z,31.03
2023-04-08T15:14:26.950Z,29.10
2023-04-08T15:16:54.915Z,31.07
2023-04-08T15:19:24.280Z,33.20
2023-04-08T15:21:52.344Z,31.30
2023-04-08T15:24:20.511Z,32.60
2023-04-08T15:26:48.445Z,34.27
2023-04-08T15:29:17.114Z,34.57
2023-04-08T15:31:45.088Z,38.00
2023-04-08T15:34:13.049Z,33.53
2023-04-08T15:36:42.358Z,30.77
2023-04-08T15:39:10.325Z,31.07
2023-04-08T15:41:38.322Z,31.00
2023-04-08T15:44:06.460Z,31.77
2023-04-08T15:46:36.844Z,44.97
2023-04-08T15:49:05.490Z,40.00
2023-04-08T15:51:34.417Z,37.33
2023-04-08T15:54:03.919Z,37.07
2023-04-08T15:56:32.158Z,31.93
2023-04-08T15:59:00.157Z,35.87
2023-04-08T16:01:28.215Z,38.87
2023-04-08T16:03:56.667Z,149.70
2023-04-08T16:06:24.702Z,105.17
2023-04-08T16:08:53.125Z,78.13
2023-04-08T16:11:23.554Z,71.73
2023-04-08T16:13:51.545Z,49.90
2023-04-08T16:16:19.810Z,42.97
2023-04-08T16:18:48.668Z,40.33
2023-04-08T16:21:17.241Z,37.00
2023-04-08T16:23:45.248Z,39.23
2023-04-08T16:26:13.764Z,41.33
2023-04-08T16:28:43.424Z,39.17
2023-04-08T16:31:11.587Z,37.97
2023-04-08T16:33:39.634Z,39.17
2023-04-08T16:36:07.832Z,43.43
2023-04-08T16:38:36.000Z,40.03
2023-04-08T16:41:06.259Z,37.63
2023-04-08T16:43:34.220Z,40.53
2023-04-08T16:46:10.881Z,42.43
2023-04-08T16:48:39.233Z,46.67
2023-04-08T16:51:07.492Z,45.53
2023-04-08T16:53:35.845Z,46.47
2023-04-08T16:56:03.883Z,42.83
2023-04-08T16:58:31.970Z,47.87
2023-04-08T17:00:59.981Z,42.03
2023-04-08T17:03:29.396Z,48.63
2023-04-08T17:06:07.103Z,44.87
2023-04-08T17:08:35.444Z,42.63
2023-04-08T17:11:08.182Z,46.50
2023-04-08T17:13:36.221Z,44.70
2023-04-08T17:16:04.655Z,44.23
2023-04-08T17:18:34.419Z,38.33
2023-04-08T17:21:02.413Z,39.07
2023-04-08T17:23:30.468Z,37.27
2023-04-08T17:25:58.499Z,36.17
2023-04-08T17:28:26.548Z,42.40
2023-04-08T17:30:54.492Z,35.97
2023-04-08T17:33:22.471Z,40.60
2023-04-08T17:35:53.462Z,37.60
2023-04-08T17:38:21.584Z,44.83
2023-04-08T17:40:49.551Z,43.47
2023-04-08T17:43:18.020Z,39.53
2023-04-08T17:45:46.979Z,35.70
2023-04-08T17:48:15.079Z,36.53
2023-04-08T17:50:43.086Z,36.00
2023-04-08T17:53:12.408Z,34.97
2023-04-08T17:55:40.419Z,38.70
2023-04-08T17:58:08.425Z,38.30
2023-04-08T18:00:36.424Z,35.33
2023-04-08T18:03:04.975Z,37.17
2023-04-08T18:05:33.128Z,37.97
2023-04-08T18:08:01.093Z,39.10
2023-04-08T18:10:30.478Z,38.17
2023-04-08T18:15:31.973Z,38.77
2023-04-08T18:18:00.022Z,38.57
2023-04-08T18:20:28.772Z,43.33
2023-04-08T18:22:56.913Z,39.20
2023-04-08T18:25:24.899Z,47.73
2023-04-08T18:27:54.201Z,62.97
2023-04-08T18:30:22.267Z,60.50
2023-04-08T18:32:50.219Z,66.30
2023-04-08T18:35:18.499Z,64.30
2023-04-08T18:37:46.843Z,63.20
2023-04-08T18:40:15.370Z,50.60
2023-04-08T18:42:43.343Z,51.07
2023-04-08T18:45:12.810Z,52.30
2023-04-08T18:47:40.837Z,50.10
2023-04-08T18:50:09.311Z,49.60
2023-04-08T18:52:37.510Z,51.33
2023-04-08T18:55:05.958Z,51.67
2023-04-08T18:57:34.514Z,59.47
2023-04-08T19:00:02.570Z,55.50
2023-04-08T19:02:32.157Z,47.83
2023-04-08T19:05:00.159Z,49.93
2023-04-08T19:07:28.389Z,50.53
2023-04-08T19:09:58.567Z,53.30
2023-04-08T19:12:26.732Z,56.00
2023-04-08T19:14:54.993Z,48.57
2023-04-08T19:17:23.069Z,50.53
2023-04-08T19:19:52.437Z,50.03
2023-04-08T19:22:20.828Z,49.37
2023-04-08T19:24:48.824Z,49.93
2023-04-08T19:27:16.808Z,50.30
2023-04-08T19:29:44.823Z,50.07
2023-04-08T19:32:14.251Z,50.97
2023-04-08T19:34:42.463Z,55.63
2023-04-08T19:37:11.841Z,51.30
2023-04-08T19:39:39.802Z,51.67
2023-04-08T19:42:07.996Z,58.20
2023-04-08T19:44:35.925Z,55.47
2023-04-08T19:47:05.999Z,56.63
2023-04-08T19:49:34.004Z,60.23
2023-04-08T19:52:01.965Z,62.57
2023-04-08T19:54:31.253Z,56.57
2023-04-08T19:56:59.401Z,58.77
2023-04-08T19:59:27.399Z,56.27
2023-04-08T20:01:55.494Z,57.83
2023-04-08T20:04:23.635Z,58.57
2023-04-08T20:06:51.698Z,52.77
2023-04-08T20:09:19.678Z,58.70
2023-04-08T20:11:49.034Z,55.50
2023-04-08T20:14:16.996Z,54.63
2023-04-08T20:16:45.040Z,61.10
2023-04-08T20:19:13.013Z,57.70
2023-04-08T20:21:40.975Z,59.60
2023-04-08T20:24:08.922Z,65.43
2023-04-08T20:26:36.917Z,67.13
2023-04-08T20:29:06.611Z,68.80
2023-04-08T20:31:34.680Z,64.67
2023-04-08T20:34:03.567Z,73.33
2023-04-08T20:36:32.757Z,66.57
2023-04-08T20:39:01.078Z,69.63
2023-04-08T20:41:29.465Z,67.43
2023-04-08T20:43:57.450Z,70.23
2023-04-08T20:46:27.152Z,74.77
2023-04-08T20:48:55.154Z,76.77
2023-04-08T20:51:23.088Z,66.40
2023-04-08T20:53:51.057Z,64.17
2023-04-08T20:56:19.057Z,60.27
2023-04-08T20:58:47.030Z,57.10
2023-04-08T21:01:15.088Z,60.07
2023-04-08T21:03:44.507Z,59.37
2023-04-08T21:06:17.299Z,62.13
2023-04-08T21:08:45.332Z,65.00
2023-04-08T21:11:13.524Z,68.13
2023-04-08T21:13:41.582Z,71.87
2023-04-08T21:16:10.156Z,73.53
2023-04-08T21:18:39.817Z,68.23
2023-04-08T21:21:11.197Z,65.10
2023-04-08T21:23:39.163Z,67.97
2023-04-08T21:26:12.088Z,61.03
2023-04-08T21:28:40.815Z,58.00
2023-04-08T21:31:09.597Z,60.67
2023-04-08T21:33:37.841Z,63.03
2023-04-08T21:36:07.088Z,61.47
2023-04-08T21:38:36.561Z,64.07
2023-04-08T21:41:04.565Z,56.30
2023-04-08T21:43:32.857Z,61.60
2023-04-08T21:46:00.948Z,66.63
2023-04-08T21:48:28.924Z,64.47
2023-04-08T21:50:56.911Z,61.47
2023-04-08T21:53:24.947Z,61.40
2023-04-08T21:55:54.286Z,61.17
2023-04-08T21:58:22.381Z,67.53
2023-04-08T22:00:50.754Z,68.43
2023-04-08T22:03:18.913Z,74.87
2023-04-08T22:05:46.982Z,76.73
2023-04-08T22:08:14.926Z,89.67
2023-04-08T22:10:42.931Z,90.47
2023-04-08T22:13:12.502Z,79.20
2023-04-08T22:15:40.482Z,82.43
2023-04-08T22:18:08.587Z,75.47
2023-04-08T22:20:36.668Z,73.20
2023-04-08T22:23:04.631Z,71.67
2023-04-08T22:25:32.638Z,70.17
2023-04-08T22:28:00.623Z,63.73
2023-04-08T22:30:31.055Z,56.60
2023-04-08T22:32:59.088Z,57.70
2023-04-08T22:35:27.163Z,61.77
2023-04-08T22:37:55.231Z,54.57
2023-04-08T22:40:23.403Z,55.70
2023-04-08T22:42:51.418Z,57.23
2023-04-08T22:45:19.515Z,51.33
2023-04-08T22:47:48.813Z,48.23
2023-04-08T22:50:16.818Z,46.70
2023-04-08T22:52:44.864Z,47.93
2023-04-08T22:55:13.036Z,39.53
2023-04-08T22:57:41.058Z,45.17
2023-04-08T23:00:10.213Z,45.23
2023-04-08T23:02:38.454Z,46.43
2023-04-08T23:05:09.066Z,39.10
2023-04-08T23:07:37.054Z,45.00
2023-04-08T23:10:05.527Z,47.73
2023-04-08T23:12:33.493Z,41.23
2023-04-08T23:15:01.539Z,45.40
2023-04-08T23:17:29.563Z,44.30
2023-04-08T23:19:57.604Z,47.80
2023-04-08T23:22:27.059Z,52.17
2023-04-08T23:24:55.000Z,51.70
2023-04-08T23:27:23.084Z,45.60
2023-04-08T23:29:51.116Z,51.37
2023-04-08T23:32:19.136Z,49.00
2023-04-08T23:34:47.150Z,43.67
2023-04-08T23:37:15.454Z,40.17
2023-04-08T23:39:44.792Z,34.50
2023-04-08T23:42:12.768Z,38.13
2023-04-08T23:44:40.893Z,39.73
2023-04-08T23:47:08.861Z,37.00
2023-04-08T23:49:36.821Z,40.30
2023-04-08T23:52:05.552Z,36.77
2023-04-08T23:54:33.843Z,39.00
2023-04-08T23:57:03.180Z,45.53
2023-04-08T23:59:31.153Z,45.10
